createdAt,value
2018-05-04T00:00:56.060Z,93971.22
2018-05-04T00:03:23.729Z,93975.41
2018-05-04T00:05:51.428Z,93968.83
2018-05-04T00:08:19.209Z,93972.33
2018-05-04T00:10:46.920Z,93975.78
2018-05-04T00:13:14.603Z,93969.77
2018-05-04T00:15:42.204Z,93969.73
2018-05-04T00:18:09.865Z,93962.12
2018-05-04T00:20:37.522Z,93964.09
2018-05-04T00:23:05.158Z,93955.28
2018-05-04T00:25:32.956Z,93953.31
2018-05-04T00:28:00.585Z,93954.67
2018-05-04T00:30:28.229Z,93951.70
2018-05-04T00:32:55.915Z,93959.20
2018-05-04T00:35:23.510Z,93959.47
2018-05-04T00:37:51.163Z,93969.59
2018-05-04T00:40:18.763Z,93965.48
2018-05-04T00:42:46.659Z,93970.08
2018-05-04T00:45:14.280Z,93969.85
2018-05-04T00:47:41.956Z,93971.66
2018-05-04T00:50:09.648Z,93970.03
2018-05-04T00:52:37.257Z,93973.66
2018-05-04T00:55:04.914Z,93965.80
2018-05-04T00:57:32.574Z,93970.44
2018-05-04T01:00:00.180Z,93963.00
2018-05-04T01:02:27.838Z,93964.73
2018-05-04T01:04:55.479Z,93970.16
2018-05-04T01:07:23.089Z,93969.67
2018-05-04T01:09:50.767Z,93966.31
2018-05-04T01:12:18.846Z,93963.86
2018-05-04T01:14:46.507Z,93969.56
2018-05-04T01:17:14.219Z,93968.94
2018-05-04T01:19:41.848Z,93969.65
2018-05-04T01:22:09.497Z,93968.10
2018-05-04T01:24:37.125Z,93973.30
2018-05-04T01:27:04.813Z,93966.11
2018-05-04T01:29:32.469Z,93968.96
2018-05-04T01:32:00.130Z,93972.24
2018-05-04T01:34:27.737Z,93979.95
2018-05-04T01:36:55.397Z,93970.58
2018-05-04T01:39:23.037Z,93983.95
2018-05-04T01:41:50.707Z,93980.30
2018-05-04T01:44:18.364Z,93985.88
2018-05-04T01:46:45.976Z,93990.81
2018-05-04T01:49:13.613Z,93989.74
2018-05-04T01:51:41.567Z,93993.03
2018-05-04T01:54:09.152Z,93988.75
2018-05-04T01:56:36.794Z,93987.93
2018-05-04T01:59:04.398Z,93979.19
2018-05-04T02:01:32.114Z,93981.61
2018-05-04T02:03:59.713Z,93980.82
2018-05-04T02:06:27.440Z,93979.61
2018-05-04T02:08:55.111Z,93978.34
2018-05-04T02:11:22.809Z,93975.33
2018-05-04T02:13:50.417Z,93969.51
2018-05-04T02:16:18.091Z,93966.55
2018-05-04T02:18:45.779Z,93968.41
2018-05-04T02:21:13.474Z,93974.94
2018-05-04T02:23:41.069Z,93974.86
2018-05-04T02:26:09.230Z,93981.89
2018-05-04T02:28:37.007Z,93984.78
2018-05-04T02:31:04.754Z,93980.15
2018-05-04T02:33:32.526Z,93983.23
2018-05-04T02:36:00.453Z,93990.28
2018-05-04T02:38:28.293Z,93990.78
2018-05-04T02:40:56.120Z,93995.64
2018-05-04T02:43:23.867Z,93992.02
2018-05-04T02:45:51.590Z,93981.66
2018-05-04T02:48:19.306Z,93984.46
2018-05-04T02:50:46.901Z,93980.11
2018-05-04T02:53:14.594Z,93979.24
2018-05-04T02:55:42.608Z,93979.80
2018-05-04T02:58:10.285Z,93982.17
2018-05-04T03:00:38.134Z,93985.77
2018-05-04T03:03:05.782Z,93982.69
2018-05-04T03:05:33.432Z,93978.77
2018-05-04T03:08:01.029Z,93982.48
2018-05-04T03:10:28.695Z,93976.67
2018-05-04T03:12:56.395Z,93979.52
2018-05-04T03:15:24.026Z,93984.74
2018-05-04T03:17:51.722Z,93986.24
2018-05-04T03:20:19.344Z,93987.47
2018-05-04T03:22:46.995Z,93984.46
2018-05-04T03:25:15.392Z,93988.70
2018-05-04T03:27:43.109Z,93991.06
2018-05-04T03:30:10.716Z,93994.70
2018-05-04T03:32:38.356Z,94003.73
2018-05-04T03:35:06.036Z,94005.03
2018-05-04T03:37:33.742Z,93997.83
2018-05-04T03:40:01.398Z,94002.22
2018-05-04T03:42:28.995Z,94000.25
2018-05-04T03:44:56.626Z,94005.91
2018-05-04T03:47:24.226Z,93997.20
2018-05-04T03:49:51.880Z,93994.23
2018-05-04T03:52:19.491Z,93993.83
2018-05-04T03:54:47.176Z,93991.41
2018-05-04T03:57:26.724Z,93999.80
2018-05-04T04:00:06.139Z,93997.27
2018-05-04T04:02:45.494Z,93996.52
2018-05-04T04:05:13.186Z,94003.48
2018-05-04T04:07:40.797Z,93999.89
2018-05-04T04:10:08.488Z,94009.66
2018-05-04T04:12:36.202Z,94006.02
2018-05-04T04:15:03.836Z,94006.19
2018-05-04T04:17:31.513Z,94007.20
2018-05-04T04:19:59.119Z,94001.59
2018-05-04T04:22:26.841Z,94009.22
2018-05-04T04:24:54.502Z,94011.16
2018-05-04T04:27:22.149Z,94010.28
2018-05-04T04:29:49.788Z,94008.78
2018-05-04T04:32:19.690Z,94007.84
2018-05-04T04:34:47.336Z,94015.36
2018-05-04T04:37:15.038Z,94023.31
2018-05-04T04:39:42.706Z,94023.03
2018-05-04T04:42:10.367Z,94024.30
2018-05-04T04:44:37.989Z,94033.47
2018-05-04T04:47:05.632Z,94041.66
2018-05-04T04:49:33.289Z,94038.22
2018-05-04T04:52:01.004Z,94049.19
2018-05-04T04:54:28.702Z,94046.10
2018-05-04T04:56:56.364Z,94041.66
2018-05-04T04:59:24.985Z,94048.39
2018-05-04T05:01:52.733Z,94044.59
2018-05-04T05:04:20.421Z,94046.61
2018-05-04T05:06:48.044Z,94038.74
2018-05-04T05:09:15.682Z,94044.83
2018-05-04T05:11:43.347Z,94046.73
2018-05-04T05:14:10.996Z,94045.73
2018-05-04T05:16:38.673Z,94048.00
2018-05-04T05:19:06.490Z,94042.73
2018-05-04T05:21:34.117Z,94048.07
2018-05-04T05:24:01.889Z,94052.59
2018-05-04T05:26:29.626Z,94053.11
2018-05-04T05:28:57.301Z,94054.28
2018-05-04T05:31:24.959Z,94059.60
2018-05-04T05:33:52.590Z,94059.18
2018-05-04T05:36:20.279Z,94056.66
2018-05-04T05:38:47.945Z,94060.73
2018-05-04T05:41:16.859Z,94059.44
2018-05-04T05:43:45.651Z,94062.33
2018-05-04T05:46:13.384Z,94062.08
2018-05-04T05:48:41.093Z,94069.44
2018-05-04T05:51:08.860Z,94066.47
2018-05-04T05:53:36.645Z,94065.56
2018-05-04T05:56:04.343Z,94056.66
2018-05-04T05:58:31.936Z,94065.69
2018-05-04T06:00:59.604Z,94071.94
2018-05-04T06:03:27.313Z,94070.11
2018-05-04T06:05:55.011Z,94072.56
2018-05-04T06:08:22.641Z,94075.41
2018-05-04T06:10:50.308Z,94077.91
2018-05-04T06:13:17.971Z,94071.19
2018-05-04T06:15:45.596Z,94070.91
2018-05-04T06:18:13.347Z,94075.12
2018-05-04T06:20:41.063Z,94076.27
2018-05-04T06:23:08.712Z,94080.13
2018-05-04T06:25:36.374Z,94071.23
2018-05-04T06:28:04.058Z,94070.92
2018-05-04T06:30:31.662Z,94072.84
2018-05-04T06:32:59.404Z,94078.23
2018-05-04T06:35:27.002Z,94078.45
2018-05-04T06:37:54.746Z,94082.80
2018-05-04T06:40:22.612Z,94088.62
2018-05-04T06:42:50.436Z,94083.14
2018-05-04T06:45:18.142Z,94085.27
2018-05-04T06:47:45.780Z,94079.16
2018-05-04T06:50:13.512Z,94080.63
2018-05-04T06:52:41.263Z,94076.00
2018-05-04T06:55:08.964Z,94078.13
2018-05-04T06:57:36.668Z,94077.94
2018-05-04T07:00:04.435Z,94069.13
2018-05-04T07:02:32.075Z,94066.98
2018-05-04T07:04:59.749Z,94065.75
2018-05-04T07:07:27.400Z,94068.45
2018-05-04T07:09:55.067Z,94069.37
2018-05-04T07:12:22.693Z,94073.06
2018-05-04T07:14:50.365Z,94067.06
2018-05-04T07:17:18.060Z,94072.23
2018-05-04T07:19:45.657Z,94074.25
2018-05-04T07:22:13.284Z,94076.54
2018-05-04T07:24:40.953Z,94077.34
2018-05-04T07:27:08.588Z,94067.09
2018-05-04T07:29:36.275Z,94073.21
2018-05-04T07:32:03.922Z,94076.13
2018-05-04T07:34:31.624Z,94079.42
2018-05-04T07:36:59.290Z,94079.68
2018-05-04T07:39:26.977Z,94074.44
2018-05-04T07:41:54.697Z,94069.31
2018-05-04T07:44:22.357Z,94077.50
2018-05-04T07:46:49.983Z,94084.20
2018-05-04T07:49:17.636Z,94081.38
2018-05-04T07:51:45.302Z,94077.34
2018-05-04T07:54:12.916Z,94086.38
2018-05-04T07:56:40.713Z,94079.27
2018-05-04T07:59:08.409Z,94083.23
2018-05-04T08:01:36.479Z,94086.87
2018-05-04T08:04:04.156Z,94078.24
2018-05-04T08:06:31.889Z,94073.39
2018-05-04T08:08:59.528Z,94078.08
2018-05-04T08:11:27.512Z,94069.86
2018-05-04T08:13:55.206Z,94073.90
2018-05-04T08:16:22.917Z,94074.38
2018-05-04T08:18:51.432Z,94073.20
2018-05-04T08:21:19.221Z,94074.66
2018-05-04T08:23:46.924Z,94068.67
2018-05-04T08:26:14.572Z,94067.32
2018-05-04T08:28:42.226Z,94067.47
2018-05-04T08:31:09.958Z,94068.98
2018-05-04T08:33:37.558Z,94069.44
2018-05-04T08:36:05.187Z,94068.93
2018-05-04T08:38:32.858Z,94063.72
2018-05-04T08:41:00.485Z,94067.12
2018-05-04T08:43:28.123Z,94064.56
2018-05-04T08:45:55.837Z,94068.89
2018-05-04T08:48:23.523Z,94057.60
2018-05-04T08:50:51.240Z,94065.55
2018-05-04T08:53:19.740Z,94066.95
2018-05-04T08:55:48.483Z,94065.25
2018-05-04T08:58:16.146Z,94056.97
2018-05-04T09:00:45.005Z,94063.42
2018-05-04T09:03:13.558Z,94062.77
2018-05-04T09:05:41.366Z,94064.83
2018-05-04T09:08:09.022Z,94059.23
2018-05-04T09:10:37.354Z,94072.46
2018-05-04T09:13:05.136Z,94064.91
2018-05-04T09:15:33.674Z,94068.91
2018-05-04T09:18:01.450Z,94074.95
2018-05-04T09:20:29.090Z,94070.15
2018-05-04T09:22:56.765Z,94070.41
2018-05-04T09:25:24.465Z,94065.86
2018-05-04T09:27:52.076Z,94076.63
2018-05-04T09:30:19.720Z,94073.36
2018-05-04T09:32:48.435Z,94069.72
2018-05-04T09:35:16.115Z,94067.48
2018-05-04T09:37:43.922Z,94072.88
2018-05-04T09:40:11.551Z,94076.16
2018-05-04T09:42:39.437Z,94073.14
2018-05-04T09:45:07.096Z,94073.66
2018-05-04T09:47:34.956Z,94065.78
2018-05-04T09:50:02.651Z,94063.67
2018-05-04T09:52:30.264Z,94063.97
2018-05-04T09:54:57.874Z,94061.21
2018-05-04T09:57:25.579Z,94070.09
2018-05-04T09:59:53.908Z,94075.39
2018-05-04T10:02:21.574Z,94079.22
2018-05-04T10:04:50.120Z,94070.13
2018-05-04T10:07:17.808Z,94075.73
2018-05-04T10:09:45.422Z,94073.22
2018-05-04T10:12:13.111Z,94076.53
2018-05-04T10:14:40.768Z,94079.48
2018-05-04T10:17:08.365Z,94087.51
2018-05-04T10:19:36.025Z,94080.67
2018-05-04T10:22:03.687Z,94079.83
2018-05-04T10:24:31.331Z,94078.69
2018-05-04T10:26:59.008Z,94091.48
2018-05-04T10:29:26.749Z,94094.75
2018-05-04T10:31:54.415Z,94084.17
2018-05-04T10:34:22.108Z,94084.36
2018-05-04T10:36:49.782Z,94082.12
2018-05-04T10:39:17.447Z,94079.23
2018-05-04T10:41:45.110Z,94078.52
2018-05-04T10:44:12.766Z,94083.90
2018-05-04T10:46:40.475Z,94082.86
2018-05-04T10:49:08.089Z,94089.16
2018-05-04T10:51:35.774Z,94076.72
2018-05-04T10:54:03.439Z,94083.64
2018-05-04T10:56:31.152Z,94091.66
2018-05-04T10:58:58.799Z,94085.38
2018-05-04T11:01:26.543Z,94086.19
2018-05-04T11:03:54.166Z,94079.92
2018-05-04T11:06:21.887Z,94083.03
2018-05-04T11:08:49.591Z,94083.78
2018-05-04T11:11:17.215Z,94084.19
2018-05-04T11:13:44.915Z,94085.84
2018-05-04T11:16:12.663Z,94089.89
2018-05-04T11:18:40.403Z,94091.61
2018-05-04T11:21:08.066Z,94088.92
2018-05-04T11:23:35.778Z,94084.66
2018-05-04T11:26:03.453Z,94076.73
2018-05-04T11:28:31.094Z,94079.06
2018-05-04T11:30:58.939Z,94084.09
2018-05-04T11:33:26.571Z,94082.84
2018-05-04T11:35:54.338Z,94082.86
2018-05-04T11:38:22.033Z,94083.66
2018-05-04T11:40:49.714Z,94079.41
2018-05-04T11:43:17.407Z,94084.12
2018-05-04T11:45:45.302Z,94069.33
2018-05-04T11:48:12.989Z,94077.37
2018-05-04T11:50:40.648Z,94070.23
2018-05-04T11:53:08.314Z,94071.05
2018-05-04T11:55:35.972Z,94067.25
2018-05-04T11:58:03.685Z,94067.12
2018-05-04T12:00:31.400Z,94067.58
2018-05-04T12:02:59.134Z,94063.77
2018-05-04T12:05:26.929Z,94062.67
2018-05-04T12:07:54.749Z,94059.84
2018-05-04T12:10:22.493Z,94061.91
2018-05-04T12:12:50.125Z,94060.32
2018-05-04T12:15:17.790Z,94058.47
2018-05-04T12:17:45.683Z,94049.20
2018-05-04T12:20:13.370Z,94056.77
2018-05-04T12:22:41.058Z,94056.69
2018-05-04T12:25:08.728Z,94051.23
2018-05-04T12:27:36.401Z,94057.14
2018-05-04T12:30:04.368Z,94059.84
2018-05-04T12:32:32.006Z,94050.73
2018-05-04T12:37:26.577Z,94041.23
2018-05-04T12:39:54.913Z,94042.44
2018-05-04T12:42:23.837Z,94049.66
2018-05-04T12:44:51.617Z,94044.52
2018-05-04T12:47:20.119Z,94045.36
2018-05-04T12:49:47.791Z,94045.88
2018-05-04T12:52:15.557Z,94044.54
2018-05-04T12:54:43.261Z,94041.81
2018-05-04T12:57:11.080Z,94033.55
2018-05-04T12:59:38.752Z,94038.59
2018-05-04T13:02:06.374Z,94034.72
2018-05-04T13:04:34.275Z,94029.09
2018-05-04T13:07:01.871Z,94032.23
2018-05-04T13:09:29.607Z,94029.48
2018-05-04T13:11:57.246Z,94036.70
2018-05-04T13:14:25.867Z,94029.91
2018-05-04T13:16:53.577Z,94032.92
2018-05-04T13:19:21.206Z,94034.29
2018-05-04T13:21:48.884Z,94026.58
2018-05-04T13:24:16.495Z,94027.23
2018-05-04T13:26:44.187Z,94027.77
2018-05-04T13:29:11.820Z,94021.39
2018-05-04T13:31:39.512Z,94017.92
2018-05-04T13:34:07.122Z,94021.24
2018-05-04T13:36:34.792Z,94018.80
2018-05-04T13:39:02.491Z,94026.75
2018-05-04T13:41:30.201Z,94022.98
2018-05-04T13:43:57.904Z,94027.24
2018-05-04T13:46:25.536Z,94025.22
2018-05-04T13:48:53.983Z,94018.15
2018-05-04T13:51:21.718Z,94012.73
2018-05-04T13:53:49.272Z,94013.97
2018-05-04T13:56:16.970Z,94011.67
2018-05-04T13:58:44.658Z,94013.50
2018-05-04T14:01:12.565Z,94008.61
2018-05-04T14:03:40.224Z,94004.51
2018-05-04T14:06:07.894Z,94007.84
2018-05-04T14:08:35.697Z,94009.89
2018-05-04T14:11:03.876Z,93999.88
2018-05-04T14:13:31.574Z,94007.66
2018-05-04T14:15:59.286Z,94018.02
2018-05-04T14:18:26.988Z,94011.78
2018-05-04T14:20:54.671Z,94009.73
2018-05-04T14:23:22.360Z,94012.76
2018-05-04T14:25:50.048Z,94011.77
2018-05-04T14:28:17.715Z,94010.91
2018-05-04T14:30:45.419Z,94010.20
2018-05-04T14:33:13.081Z,94012.20
2018-05-04T14:35:40.844Z,94008.47
2018-05-04T14:38:08.546Z,94008.81
2018-05-04T14:40:36.253Z,94002.58
2018-05-04T14:43:03.912Z,94008.06
2018-05-04T14:45:31.559Z,94008.72
2018-05-04T14:47:59.186Z,94022.98
2018-05-04T14:50:26.866Z,94011.41
2018-05-04T14:52:54.673Z,94016.13
2018-05-04T14:55:22.339Z,94021.72
2018-05-04T14:57:50.100Z,94014.34
2018-05-04T15:00:17.734Z,94006.27
2018-05-04T15:02:45.392Z,94013.73
2018-05-04T15:05:13.190Z,94016.30
2018-05-04T15:07:40.917Z,94024.97
2018-05-04T15:10:08.669Z,94036.16
2018-05-04T15:12:36.503Z,94048.52
2018-05-04T15:15:04.253Z,94060.85
2018-05-04T15:17:33.144Z,94056.55
2018-05-04T15:20:00.861Z,94053.08
2018-05-04T15:22:28.600Z,94050.89
2018-05-04T15:24:56.402Z,94063.24
2018-05-04T15:27:24.090Z,94075.64
2018-05-04T15:29:51.749Z,94095.27
2018-05-04T15:32:20.395Z,94091.09
2018-05-04T15:34:48.121Z,94090.25
2018-05-04T15:37:16.516Z,94090.98
2018-05-04T15:39:44.309Z,94098.73
2018-05-04T15:42:11.965Z,94096.56
2018-05-04T15:44:39.713Z,94091.07
2018-05-04T15:47:07.392Z,94097.41
2018-05-04T15:49:35.268Z,94098.39
2018-05-04T15:52:06.555Z,94098.34
2018-05-04T15:54:34.286Z,94097.82
2018-05-04T15:57:02.787Z,94097.26
2018-05-04T15:59:30.580Z,94096.77
2018-05-04T16:01:58.325Z,94107.29
2018-05-04T16:04:27.279Z,94104.54
2018-05-04T16:06:55.024Z,94106.23
2018-05-04T16:09:23.508Z,94106.39
2018-05-04T16:11:51.226Z,94108.50
2018-05-04T16:14:18.990Z,94102.05
2018-05-04T16:16:46.676Z,94104.29
2018-05-04T16:19:14.358Z,94108.89
2018-05-04T16:21:42.939Z,94103.23
2018-05-04T16:24:10.733Z,94101.39
2018-05-04T16:26:38.528Z,94097.03
2018-05-04T16:29:06.204Z,94104.79
2018-05-04T16:31:34.235Z,94100.34
2018-05-04T16:34:01.909Z,94099.30
2018-05-04T16:36:29.993Z,94099.82
2018-05-04T16:38:57.592Z,94105.08
2018-05-04T16:41:25.286Z,94103.36
2018-05-04T16:43:53.060Z,94099.68
2018-05-04T16:46:27.441Z,94101.14
2018-05-04T16:49:00.634Z,94103.36
2018-05-04T16:51:28.352Z,94112.44
2018-05-04T16:53:56.073Z,94113.22
2018-05-04T16:56:24.363Z,94108.60
2018-05-04T16:58:51.976Z,94115.96
2018-05-04T17:01:19.689Z,94126.34
2018-05-04T17:03:47.420Z,94143.81
2018-05-04T17:06:15.176Z,94149.71
2018-05-04T17:08:43.037Z,94152.99
2018-05-04T17:11:11.130Z,94158.61
2018-05-04T17:13:39.654Z,94167.53
2018-05-04T17:16:07.642Z,94171.88
2018-05-04T17:18:35.782Z,94178.90
2018-05-04T17:21:03.853Z,94184.70
2018-05-04T17:23:32.362Z,94193.80
2018-05-04T17:26:00.147Z,94199.20
2018-05-04T17:28:27.921Z,94213.55
2018-05-04T17:30:55.642Z,94228.72
2018-05-04T17:33:23.433Z,94229.51
2018-05-04T17:35:51.170Z,94231.83
2018-05-04T17:38:18.928Z,94238.08
2018-05-04T17:40:46.837Z,94240.53
2018-05-04T17:43:14.546Z,94239.23
2018-05-04T17:45:42.389Z,94227.55
2018-05-04T17:48:10.119Z,94234.98
2018-05-04T17:50:37.967Z,94227.16
2018-05-04T17:53:05.700Z,94227.94
2018-05-04T17:55:33.428Z,94223.76
2018-05-04T17:58:01.119Z,94220.35
2018-05-04T18:00:28.997Z,94216.52
2018-05-04T18:02:56.704Z,94223.20
2018-05-04T18:05:24.514Z,94236.09
2018-05-04T18:07:53.336Z,94251.98
2018-05-04T18:10:21.400Z,94250.41
2018-05-04T18:12:49.990Z,94257.80
2018-05-04T18:15:19.025Z,94239.88
2018-05-04T18:17:47.684Z,94238.59
2018-05-04T18:20:16.123Z,94256.78
2018-05-04T18:22:43.866Z,94257.38
2018-05-04T18:25:11.886Z,94269.72
2018-05-04T18:27:41.331Z,94275.45
2018-05-04T18:30:09.188Z,94275.26
2018-05-04T18:32:37.129Z,94284.11
2018-05-04T18:35:04.848Z,94298.98
2018-05-04T18:37:32.983Z,94308.11
2018-05-04T18:40:01.013Z,94306.94
2018-05-04T18:42:28.731Z,94314.86
2018-05-04T18:44:57.386Z,94312.77
2018-05-04T18:47:25.964Z,94321.13
2018-05-04T18:49:55.164Z,94315.67
2018-05-04T18:52:23.478Z,94318.15
2018-05-04T18:54:51.394Z,94318.24
2018-05-04T18:57:19.181Z,94315.59
2018-05-04T18:59:48.083Z,94319.70
2018-05-04T19:02:21.424Z,94320.41
2018-05-04T19:04:49.248Z,94325.45
2018-05-04T19:07:18.398Z,94329.46
2018-05-04T19:09:46.104Z,94326.30
2018-05-04T19:12:13.943Z,94325.81
2018-05-04T19:14:41.713Z,94330.02
2018-05-04T19:17:09.442Z,94333.19
2018-05-04T19:19:37.727Z,94335.88
2018-05-04T19:22:05.608Z,94346.78
2018-05-04T19:24:33.312Z,94349.42
2018-05-04T19:27:01.032Z,94352.11
2018-05-04T19:29:28.963Z,94356.95
2018-05-04T19:31:56.689Z,94340.95
2018-05-04T19:34:24.440Z,94341.34
2018-05-04T19:36:52.189Z,94339.42
2018-05-04T19:39:20.692Z,94340.68
2018-05-04T19:41:51.619Z,94348.39
2018-05-04T19:44:19.416Z,94349.80
2018-05-04T19:46:47.228Z,94353.17
2018-05-04T19:49:15.005Z,94357.77
2018-05-04T19:51:43.512Z,94361.13
2018-05-04T19:54:12.218Z,94364.42
2018-05-04T19:56:40.021Z,94364.23
2018-05-04T19:59:07.688Z,94370.53
2018-05-04T20:01:35.448Z,94370.37
2018-05-04T20:04:03.620Z,94374.80
2018-05-04T20:06:32.720Z,94361.18
2018-05-04T20:09:00.692Z,94364.95
2018-05-04T20:11:28.548Z,94367.05
2018-05-04T20:13:56.264Z,94374.67
2018-05-04T20:16:23.959Z,94366.78
2018-05-04T20:18:51.584Z,94367.78
2018-05-04T20:21:20.367Z,94373.05
2018-05-04T20:23:48.840Z,94375.13
2018-05-04T20:26:16.558Z,94374.83
2018-05-04T20:28:44.295Z,94373.34
2018-05-04T20:31:11.952Z,94380.38
2018-05-04T20:33:39.577Z,94374.66
2018-05-04T20:36:07.246Z,94379.69
2018-05-04T20:38:34.959Z,94372.04
2018-05-04T20:41:02.779Z,94365.01
2018-05-04T20:43:30.599Z,94360.20
2018-05-04T20:45:58.282Z,94366.41
2018-05-04T20:48:26.007Z,94368.23
2018-05-04T20:50:53.622Z,94371.66
2018-05-04T20:53:21.290Z,94373.25
2018-05-04T20:55:49.000Z,94377.70
2018-05-04T20:58:16.693Z,94384.20
2018-05-04T21:00:44.397Z,94382.89
2018-05-04T21:03:12.064Z,94380.04
2018-05-04T21:05:40.312Z,94382.38
2018-05-04T21:08:08.321Z,94382.61
2018-05-04T21:10:36.064Z,94378.84
2018-05-04T21:13:03.835Z,94375.94
2018-05-04T21:15:31.532Z,94377.17
2018-05-04T21:17:59.357Z,94378.23
2018-05-04T21:20:26.961Z,94373.84
2018-05-04T21:22:54.746Z,94366.50
2018-05-04T21:25:22.408Z,94372.30
2018-05-04T21:27:51.634Z,94368.37
2018-05-04T21:30:20.051Z,94361.48
2018-05-04T21:32:47.744Z,94363.38
2018-05-04T21:35:15.493Z,94365.52
2018-05-04T21:37:43.107Z,94357.62
2018-05-04T21:40:10.728Z,94364.81
2018-05-04T21:42:38.385Z,94360.29
2018-05-04T21:45:06.014Z,94362.91
2018-05-04T21:47:33.775Z,94360.36
2018-05-04T21:50:01.474Z,94362.39
2018-05-04T21:52:29.236Z,94367.98
2018-05-04T21:54:56.874Z,94360.77
2018-05-04T21:57:24.545Z,94364.13
2018-05-04T21:59:52.163Z,94364.84
2018-05-04T22:02:19.843Z,94363.02
2018-05-04T22:04:47.598Z,94367.73
2018-05-04T22:07:15.168Z,94371.87
2018-05-04T22:09:42.798Z,94373.38
2018-05-04T22:12:10.503Z,94380.62
2018-05-04T22:14:38.207Z,94379.92
2018-05-04T22:17:06.918Z,94380.27
2018-05-04T22:19:34.565Z,94385.03
2018-05-04T22:22:02.191Z,94384.08
2018-05-04T22:24:29.873Z,94379.62
2018-05-04T22:26:57.553Z,94379.47
2018-05-04T22:29:25.154Z,94383.36
2018-05-04T22:31:52.835Z,94382.84
2018-05-04T22:34:21.550Z,94385.17
2018-05-04T22:36:49.227Z,94387.11
2018-05-04T22:39:16.844Z,94387.16
2018-05-04T22:41:44.493Z,94389.21
2018-05-04T22:44:12.117Z,94380.27
2018-05-04T22:46:39.798Z,94379.89
2018-05-04T22:49:07.453Z,94377.67
2018-05-04T22:51:35.109Z,94381.90
2018-05-04T22:54:02.730Z,94369.26
2018-05-04T22:56:30.509Z,94367.67
2018-05-04T22:58:58.169Z,94361.47
2018-05-04T23:01:25.836Z,94368.41
2018-05-04T23:03:53.611Z,94365.49
2018-05-04T23:06:21.350Z,94360.30
2018-05-04T23:08:48.984Z,94365.69
2018-05-04T23:11:16.625Z,94374.17
2018-05-04T23:13:45.268Z,94366.96
2018-05-04T23:16:13.102Z,94375.23
2018-05-04T23:18:40.769Z,94381.66
2018-05-04T23:21:08.384Z,94379.12
2018-05-04T23:23:36.043Z,94382.34
2018-05-04T23:26:03.645Z,94385.77
2018-05-04T23:28:31.350Z,94394.58
2018-05-04T23:30:58.986Z,94393.89
2018-05-04T23:33:26.772Z,94395.83
2018-05-04T23:35:54.553Z,94401.23
2018-05-04T23:38:22.223Z,94409.36
2018-05-04T23:40:50.520Z,94414.66
2018-05-04T23:43:18.204Z,94424.22
2018-05-04T23:45:45.837Z,94427.30
2018-05-04T23:48:13.589Z,94435.30
2018-05-04T23:50:41.220Z,94444.17
2018-05-04T23:53:08.892Z,94449.58
2018-05-04T23:55:36.496Z,94446.70
2018-05-04T23:58:04.174Z,94440.91
